sim
Sign-in with your pilot id or email,
or register
Callsign
Passwort

Schedule Details

Flight Number: DLH1820 (2)
Departure: Munich Airport (EDDM) at 15:20
Arrival: Palma de Mallorca Airport (LEPA) at 17:20
Route: Lufthansa Passenger Schedule. Enter filed route here before submitting Pirep.

Weather Information
Getting current METAR information for EDDM 250950Z 27007KT 230V290 9999 -RA FEW011 SCT020 10/08 Q1003 NOSIG
Getting current METAR information for LEPA 250930Z 34020G31KT 310V010 9999 FEW020 23/11 Q1013 NOSIG

Schedule Frequency

Route Map